sensor_id;sensor_type;location;lat;lon;timestamp;P1;durP1;ratioP1;P2;durP2;ratioP2
10333;SDS011;5212;47.892;16.406;2023-04-24T00:01:24;3.93;;;3.60;;
10333;SDS011;5212;47.892;16.406;2023-04-24T00:03:50;5.50;;;4.60;;
10333;SDS011;5212;47.892;16.406;2023-04-24T00:06:16;3.63;;;3.33;;
10333;SDS011;5212;47.892;16.406;2023-04-24T00:08:42;4.03;;;3.60;;
10333;SDS011;5212;47.892;16.406;2023-04-24T00:11:08;4.37;;;3.97;;
10333;SDS011;5212;47.892;16.406;2023-04-24T00:13:34;4.10;;;3.70;;
10333;SDS011;5212;47.892;16.406;2023-04-24T00:16:01;5.10;;;4.50;;
10333;SDS011;5212;47.892;16.406;2023-04-24T00:18:27;4.57;;;3.93;;
10333;SDS011;5212;47.892;16.406;2023-04-24T00:20:53;4.10;;;3.70;;
10333;SDS011;5212;47.892;16.406;2023-04-24T00:23:19;4.33;;;3.93;;
10333;SDS011;5212;47.892;16.406;2023-04-24T00:25:46;6.67;;;4.80;;
10333;SDS011;5212;47.892;16.406;2023-04-24T00:28:12;4.97;;;4.47;;
10333;SDS011;5212;47.892;16.406;2023-04-24T00:30:38;6.60;;;5.90;;
10333;SDS011;5212;47.892;16.406;2023-04-24T00:33:04;5.73;;;4.93;;
10333;SDS011;5212;47.892;16.406;2023-04-24T00:35:30;6.33;;;4.87;;
10333;SDS011;5212;47.892;16.406;2023-04-24T00:37:56;5.87;;;5.17;;
10333;SDS011;5212;47.892;16.406;2023-04-24T00:40:22;5.67;;;5.17;;
10333;SDS011;5212;47.892;16.406;2023-04-24T00:42:48;6.67;;;6.07;;
10333;SDS011;5212;47.892;16.406;2023-04-24T00:45:14;5.80;;;5.20;;
10333;SDS011;5212;47.892;16.406;2023-04-24T00:47:40;6.40;;;5.73;;
10333;SDS011;5212;47.892;16.406;2023-04-24T00:50:08;7.80;;;6.00;;
10333;SDS011;5212;47.892;16.406;2023-04-24T00:52:34;5.87;;;5.37;;
10333;SDS011;5212;47.892;16.406;2023-04-24T00:55:01;6.27;;;5.07;;
10333;SDS011;5212;47.892;16.406;2023-04-24T00:57:27;5.67;;;5.10;;
10333;SDS011;5212;47.892;16.406;2023-04-24T00:59:53;6.23;;;5.30;;
10333;SDS011;5212;47.892;16.406;2023-04-24T01:02:19;6.57;;;5.87;;
10333;SDS011;5212;47.892;16.406;2023-04-24T01:04:47;5.50;;;4.93;;
10333;SDS011;5212;47.892;16.406;2023-04-24T01:07:14;6.63;;;5.93;;
10333;SDS011;5212;47.892;16.406;2023-04-24T01:09:40;7.83;;;5.63;;
10333;SDS011;5212;47.892;16.406;2023-04-24T01:12:06;6.50;;;5.90;;
10333;SDS011;5212;47.892;16.406;2023-04-24T01:14:32;7.53;;;6.57;;
10333;SDS011;5212;47.892;16.406;2023-04-24T01:16:59;6.97;;;6.27;;
10333;SDS011;5212;47.892;16.406;2023-04-24T01:19:25;7.93;;;7.10;;
10333;SDS011;5212;47.892;16.406;2023-04-24T01:21:51;6.90;;;6.20;;
10333;SDS011;5212;47.892;16.406;2023-04-24T01:24:20;7.73;;;6.90;;
10333;SDS011;5212;47.892;16.406;2023-04-24T01:26:46;7.40;;;6.47;;
10333;SDS011;5212;47.892;16.406;2023-04-24T01:29:12;7.10;;;6.40;;
10333;SDS011;5212;47.892;16.406;2023-04-24T01:31:38;6.53;;;5.93;;
10333;SDS011;5212;47.892;16.406;2023-04-24T01:34:04;6.73;;;5.90;;
10333;SDS011;5212;47.892;16.406;2023-04-24T01:36:31;6.03;;;5.43;;
10333;SDS011;5212;47.892;16.406;2023-04-24T01:38:57;7.73;;;6.93;;
10333;SDS011;5212;47.892;16.406;2023-04-24T01:41:24;6.43;;;5.83;;
10333;SDS011;5212;47.892;16.406;2023-04-24T01:43:50;6.60;;;5.80;;
10333;SDS011;5212;47.892;16.406;2023-04-24T01:46:16;5.90;;;5.30;;
10333;SDS011;5212;47.892;16.406;2023-04-24T01:48:42;6.00;;;4.80;;
10333;SDS011;5212;47.892;16.406;2023-04-24T01:51:10;4.90;;;4.40;;
10333;SDS011;5212;47.892;16.406;2023-04-24T01:53:36;4.33;;;3.93;;
10333;SDS011;5212;47.892;16.406;2023-04-24T01:56:02;5.07;;;3.53;;
10333;SDS011;5212;47.892;16.406;2023-04-24T01:58:29;4.20;;;3.80;;
10333;SDS011;5212;47.892;16.406;2023-04-24T02:00:55;4.33;;;3.67;;
10333;SDS011;5212;47.892;16.406;2023-04-24T02:03:21;3.70;;;3.40;;
10333;SDS011;5212;47.892;16.406;2023-04-24T02:05:47;3.20;;;2.90;;
10333;SDS011;5212;47.892;16.406;2023-04-24T02:08:13;4.90;;;4.40;;
10333;SDS011;5212;47.892;16.406;2023-04-24T02:10:39;4.57;;;4.10;;
10333;SDS011;5212;47.892;16.406;2023-04-24T02:13:05;4.40;;;4.00;;
10333;SDS011;5212;47.892;16.406;2023-04-24T02:15:32;4.20;;;3.80;;
10333;SDS011;5212;47.892;16.406;2023-04-24T02:17:58;5.10;;;4.60;;
10333;SDS011;5212;47.892;16.406;2023-04-24T02:20:24;4.20;;;3.80;;
10333;SDS011;5212;47.892;16.406;2023-04-24T02:22:50;4.70;;;4.30;;
10333;SDS011;5212;47.892;16.406;2023-04-24T02:25:16;4.80;;;4.30;;
10333;SDS011;5212;47.892;16.406;2023-04-24T02:27:42;4.73;;;4.10;;
10333;SDS011;5212;47.892;16.406;2023-04-24T02:30:08;4.47;;;4.07;;
10333;SDS011;5212;47.892;16.406;2023-04-24T02:32:35;4.63;;;3.60;;
10333;SDS011;5212;47.892;16.406;2023-04-24T02:35:01;4.33;;;3.70;;
10333;SDS011;5212;47.892;16.406;2023-04-24T02:37:27;4.67;;;4.27;;
10333;SDS011;5212;47.892;16.406;2023-04-24T02:39:53;3.90;;;3.50;;
10333;SDS011;5212;47.892;16.406;2023-04-24T02:42:19;4.40;;;3.97;;
10333;SDS011;5212;47.892;16.406;2023-04-24T02:44:45;4.60;;;3.80;;
10333;SDS011;5212;47.892;16.406;2023-04-24T02:47:11;3.90;;;3.50;;
10333;SDS011;5212;47.892;16.406;2023-04-24T02:49:38;3.90;;;3.40;;
10333;SDS011;5212;47.892;16.406;2023-04-24T02:52:04;4.07;;;3.67;;
10333;SDS011;5212;47.892;16.406;2023-04-24T02:54:30;4.20;;;3.80;;
10333;SDS011;5212;47.892;16.406;2023-04-24T02:56:56;4.57;;;4.17;;
10333;SDS011;5212;47.892;16.406;2023-04-24T02:59:22;4.50;;;4.10;;
10333;SDS011;5212;47.892;16.406;2023-04-24T03:01:48;4.07;;;3.67;;
10333;SDS011;5212;47.892;16.406;2023-04-24T03:04:14;4.70;;;4.20;;
10333;SDS011;5212;47.892;16.406;2023-04-24T03:06:41;3.90;;;3.60;;
10333;SDS011;5212;47.892;16.406;2023-04-24T03:09:07;3.70;;;3.40;;
10333;SDS011;5212;47.892;16.406;2023-04-24T03:11:33;4.57;;;4.10;;
10333;SDS011;5212;47.892;16.406;2023-04-24T03:13:59;4.37;;;3.97;;
10333;SDS011;5212;47.892;16.406;2023-04-24T03:16:25;5.23;;;3.87;;
10333;SDS011;5212;47.892;16.406;2023-04-24T03:18:51;4.57;;;4.17;;
10333;SDS011;5212;47.892;16.406;2023-04-24T03:21:17;5.40;;;4.67;;
10333;SDS011;5212;47.892;16.406;2023-04-24T03:23:43;4.80;;;4.40;;
10333;SDS011;5212;47.892;16.406;2023-04-24T03:26:09;5.47;;;4.43;;
10333;SDS011;5212;47.892;16.406;2023-04-24T03:28:35;6.77;;;6.07;;
10333;SDS011;5212;47.892;16.406;2023-04-24T03:31:02;10.00;;;7.47;;
10333;SDS011;5212;47.892;16.406;2023-04-24T03:33:28;8.83;;;7.40;;
10333;SDS011;5212;47.892;16.406;2023-04-24T03:35:54;9.10;;;8.20;;
10333;SDS011;5212;47.892;16.406;2023-04-24T03:38:20;8.37;;;6.40;;
10333;SDS011;5212;47.892;16.406;2023-04-24T03:40:47;6.40;;;5.57;;
10333;SDS011;5212;47.892;16.406;2023-04-24T03:43:13;5.70;;;5.10;;
10333;SDS011;5212;47.892;16.406;2023-04-24T03:45:38;5.20;;;4.70;;
10333;SDS011;5212;47.892;16.406;2023-04-24T03:48:04;6.33;;;5.00;;
10333;SDS011;5212;47.892;16.406;2023-04-24T03:50:30;5.97;;;4.70;;
10333;SDS011;5212;47.892;16.406;2023-04-24T03:52:56;4.87;;;4.23;;
10333;SDS011;5212;47.892;16.406;2023-04-24T03:55:22;5.90;;;5.30;;
10333;SDS011;5212;47.892;16.406;2023-04-24T03:57:49;5.77;;;5.17;;
10333;SDS011;5212;47.892;16.406;2023-04-24T04:00:15;5.63;;;5.03;;
10333;SDS011;5212;47.892;16.406;2023-04-24T04:02:41;5.63;;;5.03;;
10333;SDS011;5212;47.892;16.406;2023-04-24T04:05:07;5.53;;;4.93;;
10333;SDS011;5212;47.892;16.406;2023-04-24T04:07:34;5.33;;;4.80;;
10333;SDS011;5212;47.892;16.406;2023-04-24T04:10:00;6.03;;;4.20;;
10333;SDS011;5212;47.892;16.406;2023-04-24T04:12:26;6.03;;;4.27;;
10333;SDS011;5212;47.892;16.406;2023-04-24T04:14:52;5.70;;;4.33;;
10333;SDS011;5212;47.892;16.406;2023-04-24T04:17:18;4.80;;;4.33;;
10333;SDS011;5212;47.892;16.406;2023-04-24T04:19:44;5.00;;;4.50;;
10333;SDS011;5212;47.892;16.406;2023-04-24T04:22:10;6.33;;;4.67;;
10333;SDS011;5212;47.892;16.406;2023-04-24T04:24:36;5.07;;;4.27;;
10333;SDS011;5212;47.892;16.406;2023-04-24T04:27:03;6.40;;;4.60;;
10333;SDS011;5212;47.892;16.406;2023-04-24T04:29:29;5.20;;;4.70;;
10333;SDS011;5212;47.892;16.406;2023-04-24T04:31:57;5.00;;;4.50;;
10333;SDS011;5212;47.892;16.406;2023-04-24T04:34:23;5.57;;;4.43;;
10333;SDS011;5212;47.892;16.406;2023-04-24T04:36:49;6.33;;;5.07;;
10333;SDS011;5212;47.892;16.406;2023-04-24T04:39:15;5.10;;;4.60;;
10333;SDS011;5212;47.892;16.406;2023-04-24T04:41:43;4.70;;;4.30;;
10333;SDS011;5212;47.892;16.406;2023-04-24T04:44:11;4.30;;;3.90;;
10333;SDS011;5212;47.892;16.406;2023-04-24T04:46:37;5.10;;;4.60;;
10333;SDS011;5212;47.892;16.406;2023-04-24T04:49:04;4.83;;;4.40;;
10333;SDS011;5212;47.892;16.406;2023-04-24T04:51:30;5.00;;;4.50;;
10333;SDS011;5212;47.892;16.406;2023-04-24T04:53:57;4.73;;;4.17;;
10333;SDS011;5212;47.892;16.406;2023-04-24T04:56:22;6.67;;;5.97;;
10333;SDS011;5212;47.892;16.406;2023-04-24T04:58:49;6.57;;;5.87;;
10333;SDS011;5212;47.892;16.406;2023-04-24T05:01:15;5.73;;;4.97;;
10333;SDS011;5212;47.892;16.406;2023-04-24T05:03:41;5.80;;;5.03;;
10333;SDS011;5212;47.892;16.406;2023-04-24T05:06:07;6.07;;;5.33;;
10333;SDS011;5212;47.892;16.406;2023-04-24T05:08:33;5.30;;;4.80;;
10333;SDS011;5212;47.892;16.406;2023-04-24T05:10:59;4.83;;;4.33;;
10333;SDS011;5212;47.892;16.406;2023-04-24T05:13:25;4.53;;;4.13;;
10333;SDS011;5212;47.892;16.406;2023-04-24T05:15:51;4.80;;;4.30;;
10333;SDS011;5212;47.892;16.406;2023-04-24T05:18:17;4.67;;;4.27;;
10333;SDS011;5212;47.892;16.406;2023-04-24T05:20:43;4.57;;;4.17;;
10333;SDS011;5212;47.892;16.406;2023-04-24T05:23:10;4.93;;;4.50;;
10333;SDS011;5212;47.892;16.406;2023-04-24T05:25:36;5.43;;;3.97;;
10333;SDS011;5212;47.892;16.406;2023-04-24T05:28:04;5.40;;;4.87;;
10333;SDS011;5212;47.892;16.406;2023-04-24T05:30:30;5.03;;;4.53;;
10333;SDS011;5212;47.892;16.406;2023-04-24T05:32:56;4.83;;;4.37;;
10333;SDS011;5212;47.892;16.406;2023-04-24T05:35:22;5.57;;;5.07;;
10333;SDS011;5212;47.892;16.406;2023-04-24T05:37:48;7.37;;;6.10;;
10333;SDS011;5212;47.892;16.406;2023-04-24T05:40:15;6.13;;;5.20;;
10333;SDS011;5212;47.892;16.406;2023-04-24T05:42:41;6.57;;;5.30;;
10333;SDS011;5212;47.892;16.406;2023-04-24T05:45:07;6.33;;;5.00;;
10333;SDS011;5212;47.892;16.406;2023-04-24T05:47:36;6.80;;;6.10;;
10333;SDS011;5212;47.892;16.406;2023-04-24T05:50:02;6.33;;;5.23;;
10333;SDS011;5212;47.892;16.406;2023-04-24T05:52:29;4.80;;;4.40;;
10333;SDS011;5212;47.892;16.406;2023-04-24T05:54:55;5.00;;;4.60;;
10333;SDS011;5212;47.892;16.406;2023-04-24T05:57:21;4.97;;;4.37;;
10333;SDS011;5212;47.892;16.406;2023-04-24T05:59:47;4.80;;;4.30;;
10333;SDS011;5212;47.892;16.406;2023-04-24T06:02:14;7.20;;;6.37;;
10333;SDS011;5212;47.892;16.406;2023-04-24T06:04:41;7.60;;;6.80;;
10333;SDS011;5212;47.892;16.406;2023-04-24T06:07:07;6.23;;;5.63;;
10333;SDS011;5212;47.892;16.406;2023-04-24T06:09:33;5.20;;;4.70;;
10333;SDS011;5212;47.892;16.406;2023-04-24T06:11:59;5.17;;;4.67;;
10333;SDS011;5212;47.892;16.406;2023-04-24T06:14:26;4.53;;;3.90;;
10333;SDS011;5212;47.892;16.406;2023-04-24T06:16:52;4.53;;;3.70;;
10333;SDS011;5212;47.892;16.406;2023-04-24T06:19:18;4.03;;;3.60;;
10333;SDS011;5212;47.892;16.406;2023-04-24T06:21:44;4.37;;;2.90;;
10333;SDS011;5212;47.892;16.406;2023-04-24T06:24:10;4.27;;;2.90;;
10333;SDS011;5212;47.892;16.406;2023-04-24T06:26:37;3.80;;;2.40;;
10333;SDS011;5212;47.892;16.406;2023-04-24T06:29:03;2.63;;;2.13;;
10333;SDS011;5212;47.892;16.406;2023-04-24T06:31:29;2.37;;;2.00;;
10333;SDS011;5212;47.892;16.406;2023-04-24T06:33:55;2.63;;;1.70;;
10333;SDS011;5212;47.892;16.406;2023-04-24T06:36:21;2.47;;;1.90;;
10333;SDS011;5212;47.892;16.406;2023-04-24T06:38:47;2.60;;;1.30;;
10333;SDS011;5212;47.892;16.406;2023-04-24T06:41:13;2.90;;;1.70;;
10333;SDS011;5212;47.892;16.406;2023-04-24T06:43:39;1.87;;;1.50;;
10333;SDS011;5212;47.892;16.406;2023-04-24T06:46:06;3.17;;;1.43;;
10333;SDS011;5212;47.892;16.406;2023-04-24T06:48:33;2.00;;;1.60;;
10333;SDS011;5212;47.892;16.406;2023-04-24T06:50:59;1.50;;;1.40;;
10333;SDS011;5212;47.892;16.406;2023-04-24T06:53:25;2.00;;;1.43;;
10333;SDS011;5212;47.892;16.406;2023-04-24T06:55:51;1.73;;;1.30;;
10333;SDS011;5212;47.892;16.406;2023-04-24T06:58:17;1.43;;;1.33;;
10333;SDS011;5212;47.892;16.406;2023-04-24T07:00:43;2.23;;;1.30;;
10333;SDS011;5212;47.892;16.406;2023-04-24T07:03:09;1.83;;;1.40;;
10333;SDS011;5212;47.892;16.406;2023-04-24T07:05:36;1.60;;;1.20;;
10333;SDS011;5212;47.892;16.406;2023-04-24T07:08:03;3.67;;;1.40;;
10333;SDS011;5212;47.892;16.406;2023-04-24T07:10:29;2.77;;;1.03;;
10333;SDS011;5212;47.892;16.406;2023-04-24T07:12:55;2.73;;;1.50;;
10333;SDS011;5212;47.892;16.406;2023-04-24T07:15:21;1.77;;;1.50;;
10333;SDS011;5212;47.892;16.406;2023-04-24T07:17:47;1.40;;;1.20;;
10333;SDS011;5212;47.892;16.406;2023-04-24T07:20:13;1.77;;;1.40;;
10333;SDS011;5212;47.892;16.406;2023-04-24T07:22:40;1.80;;;1.50;;
10333;SDS011;5212;47.892;16.406;2023-04-24T07:25:06;1.70;;;1.60;;
10333;SDS011;5212;47.892;16.406;2023-04-24T07:27:33;2.17;;;1.33;;
10333;SDS011;5212;47.892;16.406;2023-04-24T07:29:59;1.30;;;1.10;;
10333;SDS011;5212;47.892;16.406;2023-04-24T07:32:26;1.40;;;1.00;;
10333;SDS011;5212;47.892;16.406;2023-04-24T07:34:52;1.20;;;1.10;;
10333;SDS011;5212;47.892;16.406;2023-04-24T07:37:18;1.20;;;1.10;;
10333;SDS011;5212;47.892;16.406;2023-04-24T07:39:44;1.30;;;1.20;;
10333;SDS011;5212;47.892;16.406;2023-04-24T07:42:10;1.80;;;1.10;;
10333;SDS011;5212;47.892;16.406;2023-04-24T07:44:36;2.23;;;1.20;;
10333;SDS011;5212;47.892;16.406;2023-04-24T07:47:02;1.20;;;1.10;;
10333;SDS011;5212;47.892;16.406;2023-04-24T07:49:28;1.60;;;1.20;;
10333;SDS011;5212;47.892;16.406;2023-04-24T07:51:54;3.07;;;1.20;;
10333;SDS011;5212;47.892;16.406;2023-04-24T07:54:20;1.23;;;1.10;;
10333;SDS011;5212;47.892;16.406;2023-04-24T07:56:48;1.33;;;1.23;;
10333;SDS011;5212;47.892;16.406;2023-04-24T07:59:14;1.27;;;1.10;;
10333;SDS011;5212;47.892;16.406;2023-04-24T08:01:40;0.97;;;0.90;;
10333;SDS011;5212;47.892;16.406;2023-04-24T08:04:06;2.43;;;1.10;;
10333;SDS011;5212;47.892;16.406;2023-04-24T08:06:32;1.30;;;1.10;;
10333;SDS011;5212;47.892;16.406;2023-04-24T08:08:58;1.37;;;1.00;;
10333;SDS011;5212;47.892;16.406;2023-04-24T08:11:24;1.70;;;1.50;;
10333;SDS011;5212;47.892;16.406;2023-04-24T08:13:51;1.90;;;1.30;;
10333;SDS011;5212;47.892;16.406;2023-04-24T08:16:17;2.37;;;1.10;;
10333;SDS011;5212;47.892;16.406;2023-04-24T08:18:43;1.67;;;1.10;;
10333;SDS011;5212;47.892;16.406;2023-04-24T08:21:09;1.30;;;1.13;;
10333;SDS011;5212;47.892;16.406;2023-04-24T08:23:36;1.67;;;1.20;;
10333;SDS011;5212;47.892;16.406;2023-04-24T08:26:02;1.60;;;1.30;;
10333;SDS011;5212;47.892;16.406;2023-04-24T08:28:28;1.77;;;1.20;;
10333;SDS011;5212;47.892;16.406;2023-04-24T08:30:55;1.30;;;1.10;;
10333;SDS011;5212;47.892;16.406;2023-04-24T08:33:21;2.60;;;1.10;;
10333;SDS011;5212;47.892;16.406;2023-04-24T08:35:47;1.70;;;1.07;;
10333;SDS011;5212;47.892;16.406;2023-04-24T08:38:13;0.93;;;0.90;;
10333;SDS011;5212;47.892;16.406;2023-04-24T08:40:39;1.83;;;1.10;;
10333;SDS011;5212;47.892;16.406;2023-04-24T08:43:05;2.00;;;1.10;;
10333;SDS011;5212;47.892;16.406;2023-04-24T08:45:32;1.70;;;1.03;;
10333;SDS011;5212;47.892;16.406;2023-04-24T08:47:59;2.13;;;1.10;;
10333;SDS011;5212;47.892;16.406;2023-04-24T08:50:25;1.53;;;1.30;;
10333;SDS011;5212;47.892;16.406;2023-04-24T08:52:52;3.53;;;1.30;;
10333;SDS011;5212;47.892;16.406;2023-04-24T08:55:18;1.47;;;1.10;;
10333;SDS011;5212;47.892;16.406;2023-04-24T08:57:45;2.33;;;1.40;;
10333;SDS011;5212;47.892;16.406;2023-04-24T09:00:14;2.57;;;1.50;;
10333;SDS011;5212;47.892;16.406;2023-04-24T09:02:41;2.00;;;1.30;;
10333;SDS011;5212;47.892;16.406;2023-04-24T09:05:09;1.73;;;1.10;;
10333;SDS011;5212;47.892;16.406;2023-04-24T09:07:35;1.23;;;0.90;;
10333;SDS011;5212;47.892;16.406;2023-04-24T09:10:05;2.63;;;1.00;;
10333;SDS011;5212;47.892;16.406;2023-04-24T09:12:33;0.80;;;0.80;;
10333;SDS011;5212;47.892;16.406;2023-04-24T09:14:59;3.00;;;1.10;;
10333;SDS011;5212;47.892;16.406;2023-04-24T09:17:26;1.17;;;1.00;;
10333;SDS011;5212;47.892;16.406;2023-04-24T09:19:53;0.87;;;0.87;;
10333;SDS011;5212;47.892;16.406;2023-04-24T09:22:20;1.10;;;1.00;;
10333;SDS011;5212;47.892;16.406;2023-04-24T09:24:46;1.17;;;1.07;;
10333;SDS011;5212;47.892;16.406;2023-04-24T09:27:13;1.57;;;0.90;;
10333;SDS011;5212;47.892;16.406;2023-04-24T09:29:42;1.27;;;0.90;;
10333;SDS011;5212;47.892;16.406;2023-04-24T09:32:19;0.97;;;0.87;;
10333;SDS011;5212;47.892;16.406;2023-04-24T09:34:47;1.03;;;0.60;;
10333;SDS011;5212;47.892;16.406;2023-04-24T09:37:15;0.60;;;0.60;;
10333;SDS011;5212;47.892;16.406;2023-04-24T09:40:06;1.00;;;0.90;;
10333;SDS011;5212;47.892;16.406;2023-04-24T09:42:33;0.80;;;0.70;;
10333;SDS011;5212;47.892;16.406;2023-04-24T09:44:59;1.07;;;0.80;;
10333;SDS011;5212;47.892;16.406;2023-04-24T09:47:25;1.10;;;0.90;;
10333;SDS011;5212;47.892;16.406;2023-04-24T09:49:51;0.90;;;0.90;;
10333;SDS011;5212;47.892;16.406;2023-04-24T09:52:23;2.40;;;0.60;;
10333;SDS011;5212;47.892;16.406;2023-04-24T09:54:52;1.03;;;0.70;;
10333;SDS011;5212;47.892;16.406;2023-04-24T09:57:19;2.57;;;0.77;;
10333;SDS011;5212;47.892;16.406;2023-04-24T09:59:45;1.20;;;0.70;;
10333;SDS011;5212;47.892;16.406;2023-04-24T10:02:16;1.23;;;0.80;;
10333;SDS011;5212;47.892;16.406;2023-04-24T10:04:53;1.00;;;0.70;;
10333;SDS011;5212;47.892;16.406;2023-04-24T10:07:19;1.70;;;0.80;;
10333;SDS011;5212;47.892;16.406;2023-04-24T10:09:45;1.33;;;0.70;;
10333;SDS011;5212;47.892;16.406;2023-04-24T10:12:12;0.90;;;0.70;;
10333;SDS011;5212;47.892;16.406;2023-04-24T10:14:38;3.07;;;0.80;;
10333;SDS011;5212;47.892;16.406;2023-04-24T10:17:04;1.70;;;1.00;;
10333;SDS011;5212;47.892;16.406;2023-04-24T10:19:31;2.43;;;1.00;;
10333;SDS011;5212;47.892;16.406;2023-04-24T10:21:58;2.53;;;0.87;;
10333;SDS011;5212;47.892;16.406;2023-04-24T10:24:25;1.20;;;0.90;;
10333;SDS011;5212;47.892;16.406;2023-04-24T10:26:51;1.40;;;0.90;;
10333;SDS011;5212;47.892;16.406;2023-04-24T10:29:18;1.63;;;0.97;;
10333;SDS011;5212;47.892;16.406;2023-04-24T10:31:44;1.10;;;0.77;;
10333;SDS011;5212;47.892;16.406;2023-04-24T10:34:11;1.10;;;0.80;;
10333;SDS011;5212;47.892;16.406;2023-04-24T10:36:38;2.40;;;0.60;;
10333;SDS011;5212;47.892;16.406;2023-04-24T10:39:07;0.80;;;0.60;;
10333;SDS011;5212;47.892;16.406;2023-04-24T10:41:36;0.70;;;0.60;;
10333;SDS011;5212;47.892;16.406;2023-04-24T10:44:06;0.63;;;0.53;;
10333;SDS011;5212;47.892;16.406;2023-04-24T10:46:33;1.10;;;0.60;;
10333;SDS011;5212;47.892;16.406;2023-04-24T10:48:59;2.27;;;0.97;;
10333;SDS011;5212;47.892;16.406;2023-04-24T10:51:42;0.73;;;0.60;;
10333;SDS011;5212;47.892;16.406;2023-04-24T10:54:21;0.87;;;0.50;;
10333;SDS011;5212;47.892;16.406;2023-04-24T10:56:48;0.80;;;0.43;;
10333;SDS011;5212;47.892;16.406;2023-04-24T10:59:23;1.57;;;0.50;;
10333;SDS011;5212;47.892;16.406;2023-04-24T11:01:52;0.80;;;0.60;;
10333;SDS011;5212;47.892;16.406;2023-04-24T11:04:28;0.87;;;0.60;;
10333;SDS011;5212;47.892;16.406;2023-04-24T11:06:55;0.70;;;0.50;;
10333;SDS011;5212;47.892;16.406;2023-04-24T11:09:21;0.87;;;0.50;;
10333;SDS011;5212;47.892;16.406;2023-04-24T11:11:47;0.60;;;0.60;;
10333;SDS011;5212;47.892;16.406;2023-04-24T11:14:14;0.50;;;0.40;;
10333;SDS011;5212;47.892;16.406;2023-04-24T11:16:43;1.87;;;0.70;;
10333;SDS011;5212;47.892;16.406;2023-04-24T11:19:20;0.90;;;0.50;;
10333;SDS011;5212;47.892;16.406;2023-04-24T11:21:49;0.87;;;0.80;;
10333;SDS011;5212;47.892;16.406;2023-04-24T11:24:24;0.97;;;0.83;;
10333;SDS011;5212;47.892;16.406;2023-04-24T11:26:51;1.27;;;0.73;;
10333;SDS011;5212;47.892;16.406;2023-04-24T11:29:17;0.90;;;0.70;;
10333;SDS011;5212;47.892;16.406;2023-04-24T11:31:45;1.13;;;1.00;;
10333;SDS011;5212;47.892;16.406;2023-04-24T11:34:15;1.00;;;0.70;;
10333;SDS011;5212;47.892;16.406;2023-04-24T11:36:42;1.10;;;0.70;;
10333;SDS011;5212;47.892;16.406;2023-04-24T11:39:08;1.00;;;0.90;;
10333;SDS011;5212;47.892;16.406;2023-04-24T11:41:35;1.07;;;0.67;;
10333;SDS011;5212;47.892;16.406;2023-04-24T11:44:01;1.57;;;0.80;;
10333;SDS011;5212;47.892;16.406;2023-04-24T11:46:28;0.70;;;0.70;;
10333;SDS011;5212;47.892;16.406;2023-04-24T11:48:55;0.60;;;0.60;;
10333;SDS011;5212;47.892;16.406;2023-04-24T11:51:22;0.77;;;0.60;;
10333;SDS011;5212;47.892;16.406;2023-04-24T11:53:49;0.80;;;0.60;;
10333;SDS011;5212;47.892;16.406;2023-04-24T11:56:17;1.03;;;0.70;;
10333;SDS011;5212;47.892;16.406;2023-04-24T11:58:44;0.93;;;0.80;;
10333;SDS011;5212;47.892;16.406;2023-04-24T12:01:10;1.13;;;0.80;;
10333;SDS011;5212;47.892;16.406;2023-04-24T12:03:36;2.60;;;0.90;;
10333;SDS011;5212;47.892;16.406;2023-04-24T12:06:05;1.00;;;0.77;;
10333;SDS011;5212;47.892;16.406;2023-04-24T12:08:33;0.80;;;0.80;;
10333;SDS011;5212;47.892;16.406;2023-04-24T12:10:59;1.10;;;0.70;;
10333;SDS011;5212;47.892;16.406;2023-04-24T12:13:26;0.83;;;0.80;;
10333;SDS011;5212;47.892;16.406;2023-04-24T12:15:52;0.90;;;0.80;;
10333;SDS011;5212;47.892;16.406;2023-04-24T12:18:18;0.97;;;0.80;;
10333;SDS011;5212;47.892;16.406;2023-04-24T12:20:44;1.20;;;1.10;;
10333;SDS011;5212;47.892;16.406;2023-04-24T12:23:10;1.03;;;0.80;;
10333;SDS011;5212;47.892;16.406;2023-04-24T12:25:38;1.07;;;0.97;;
10333;SDS011;5212;47.892;16.406;2023-04-24T12:28:10;1.10;;;0.90;;
10333;SDS011;5212;47.892;16.406;2023-04-24T12:30:39;1.10;;;0.90;;
10333;SDS011;5212;47.892;16.406;2023-04-24T12:33:06;1.23;;;1.10;;
10333;SDS011;5212;47.892;16.406;2023-04-24T12:35:33;1.17;;;0.90;;
10333;SDS011;5212;47.892;16.406;2023-04-24T12:38:05;0.97;;;0.87;;
10333;SDS011;5212;47.892;16.406;2023-04-24T12:40:31;0.93;;;0.80;;
10333;SDS011;5212;47.892;16.406;2023-04-24T12:42:58;1.10;;;0.80;;
10333;SDS011;5212;47.892;16.406;2023-04-24T12:45:24;1.13;;;0.70;;
10333;SDS011;5212;47.892;16.406;2023-04-24T12:47:50;1.03;;;0.73;;
10333;SDS011;5212;47.892;16.406;2023-04-24T12:50:16;0.77;;;0.70;;
10333;SDS011;5212;47.892;16.406;2023-04-24T12:52:42;1.53;;;0.70;;
10333;SDS011;5212;47.892;16.406;2023-04-24T12:55:09;0.87;;;0.70;;
10333;SDS011;5212;47.892;16.406;2023-04-24T12:57:36;0.73;;;0.67;;
10333;SDS011;5212;47.892;16.406;2023-04-24T13:00:03;1.20;;;0.67;;
10333;SDS011;5212;47.892;16.406;2023-04-24T13:02:31;0.80;;;0.80;;
10333;SDS011;5212;47.892;16.406;2023-04-24T13:04:57;0.90;;;0.70;;
10333;SDS011;5212;47.892;16.406;2023-04-24T13:07:23;0.90;;;0.70;;
10333;SDS011;5212;47.892;16.406;2023-04-24T13:09:50;1.13;;;0.80;;
10333;SDS011;5212;47.892;16.406;2023-04-24T13:12:16;0.83;;;0.80;;
10333;SDS011;5212;47.892;16.406;2023-04-24T13:14:42;1.40;;;1.10;;
10333;SDS011;5212;47.892;16.406;2023-04-24T13:17:09;1.73;;;1.10;;
10333;SDS011;5212;47.892;16.406;2023-04-24T13:19:37;1.53;;;1.20;;
10333;SDS011;5212;47.892;16.406;2023-04-24T13:22:04;1.63;;;1.10;;
10333;SDS011;5212;47.892;16.406;2023-04-24T13:24:30;1.00;;;0.90;;
10333;SDS011;5212;47.892;16.406;2023-04-24T13:26:57;1.00;;;0.83;;
10333;SDS011;5212;47.892;16.406;2023-04-24T13:29:23;1.80;;;0.80;;
10333;SDS011;5212;47.892;16.406;2023-04-24T13:31:49;0.80;;;0.73;;
10333;SDS011;5212;47.892;16.406;2023-04-24T13:34:16;1.30;;;0.80;;
10333;SDS011;5212;47.892;16.406;2023-04-24T13:36:42;0.80;;;0.73;;
10333;SDS011;5212;47.892;16.406;2023-04-24T13:39:09;0.60;;;0.60;;
10333;SDS011;5212;47.892;16.406;2023-04-24T13:41:36;0.83;;;0.60;;
10333;SDS011;5212;47.892;16.406;2023-04-24T13:44:02;0.80;;;0.60;;
10333;SDS011;5212;47.892;16.406;2023-04-24T13:46:28;1.23;;;0.70;;
10333;SDS011;5212;47.892;16.406;2023-04-24T13:48:54;1.03;;;0.70;;
10333;SDS011;5212;47.892;16.406;2023-04-24T13:51:21;1.40;;;1.30;;
10333;SDS011;5212;47.892;16.406;2023-04-24T13:53:47;1.00;;;0.70;;
10333;SDS011;5212;47.892;16.406;2023-04-24T13:56:13;0.50;;;0.50;;
10333;SDS011;5212;47.892;16.406;2023-04-24T13:58:39;0.60;;;0.60;;
10333;SDS011;5212;47.892;16.406;2023-04-24T14:01:05;0.80;;;0.70;;
10333;SDS011;5212;47.892;16.406;2023-04-24T14:03:32;0.50;;;0.50;;
10333;SDS011;5212;47.892;16.406;2023-04-24T14:05:58;0.60;;;0.60;;
10333;SDS011;5212;47.892;16.406;2023-04-24T14:08:25;0.60;;;0.60;;
10333;SDS011;5212;47.892;16.406;2023-04-24T14:10:51;0.70;;;0.70;;
10333;SDS011;5212;47.892;16.406;2023-04-24T14:13:17;1.30;;;0.70;;
10333;SDS011;5212;47.892;16.406;2023-04-24T14:15:43;1.00;;;0.80;;
10333;SDS011;5212;47.892;16.406;2023-04-24T14:18:09;1.00;;;0.70;;
10333;SDS011;5212;47.892;16.406;2023-04-24T14:20:35;0.70;;;0.70;;
10333;SDS011;5212;47.892;16.406;2023-04-24T14:23:01;0.70;;;0.70;;
10333;SDS011;5212;47.892;16.406;2023-04-24T14:25:29;1.37;;;0.70;;
10333;SDS011;5212;47.892;16.406;2023-04-24T14:27:55;0.80;;;0.70;;
10333;SDS011;5212;47.892;16.406;2023-04-24T14:30:21;1.00;;;0.80;;
10333;SDS011;5212;47.892;16.406;2023-04-24T14:32:47;1.73;;;1.30;;
10333;SDS011;5212;47.892;16.406;2023-04-24T14:35:13;1.10;;;1.00;;
10333;SDS011;5212;47.892;16.406;2023-04-24T14:37:39;2.73;;;1.30;;
10333;SDS011;5212;47.892;16.406;2023-04-24T14:40:06;1.70;;;1.60;;
10333;SDS011;5212;47.892;16.406;2023-04-24T14:42:34;1.40;;;1.00;;
10333;SDS011;5212;47.892;16.406;2023-04-24T14:45:00;1.17;;;0.90;;